Time;durP1;ratioP1;P1;durP2;ratioP2;P2;SDS_P1;SDS_P2;PMS_P1;PMS_P2;Temp;Humidity;BMP_temperature;BMP_pressure;BME280_temperature;BME280_humidity;BME280_pressure;Samples;Min_cycle;Max_cycle;Signal;HPM_P1;HPM_P2
2021/12/12 00:03:34;;;;;;;38.30;35.70;;;;;;;11.03;100.00;101850.06;1974089;71;39661;-76
2021/12/12 00:09:20;;;;;;;37.50;34.70;;;;;;;11.21;100.00;101852.42;1943643;71;39587;-72
2021/12/12 00:15:08;;;;;;;37.47;34.50;;;;;;;11.37;100.00;101863.14;1833978;76;86317;-76
2021/12/12 00:20:54;;;;;;;37.00;34.13;;;;;;;11.23;100.00;101864.14;1888926;73;86292;-76
2021/12/12 00:26:40;;;;;;;37.13;34.33;;;;;;;11.16;100.00;101863.53;1907137;74;86797;-76
2021/12/12 00:32:26;;;;;;;36.57;33.97;;;;;;;11.39;100.00;101861.77;1924900;71;39443;-74
2021/12/12 00:38:15;;;;;;;38.53;35.13;;;;;;;11.41;100.00;101871.25;1980359;72;85530;-72
2021/12/12 00:40:48;;;;;;;36.63;33.57;;;;;;;11.24;100.00;101878.88;1894290;74;938896;-72
2021/12/12 00:43:22;;;;;;;38.20;35.15;;;;;;;11.13;100.00;101879.88;1881434;74;940978;-76
2021/12/12 00:45:55;;;;;;;39.23;36.13;;;;;;;11.15;100.00;101874.91;1897449;73;939065;-76
2021/12/12 00:51:44;;;;;;;39.50;36.10;;;;;;;11.20;100.00;101865.22;1917829;72;86551;-72
2021/12/12 00:57:30;;;;;;;38.77;35.67;;;;;;;11.23;100.00;101864.14;1913387;74;86801;-75
2021/12/12 01:03:15;;;;;;;38.93;35.70;;;;;;;11.20;100.00;101859.66;1976495;71;39471;-75
2021/12/12 01:09:01;;;;;;;39.33;35.77;;;;;;;11.37;100.00;101859.81;1806115;78;86453;-72
2021/12/12 01:18:07;;;;;;;39.03;35.53;;;;;;;11.48;100.00;101869.61;1840011;76;86628;-72
2021/12/12 01:24:00;;;;;;;37.50;34.60;;;;;;;11.47;100.00;101865.17;1802890;78;86091;-76
2021/12/12 01:29:46;;;;;;;37.47;34.43;;;;;;;11.59;100.00;101876.41;1884581;74;86694;-72
2021/12/12 01:35:32;;;;;;;39.03;35.80;;;;;;;11.47;100.00;101878.50;1916902;74;86396;-77
2021/12/12 01:41:21;;;;;;;38.97;35.30;;;;;;;11.66;100.00;101879.78;1975627;71;39532;-77
2021/12/12 01:47:07;;;;;;;38.50;34.97;;;;;;;11.52;100.00;101886.90;1814142;77;86148;-76
2021/12/12 01:52:54;;;;;;;40.07;36.53;;;;;;;11.54;100.00;101893.05;1894749;74;86775;-72
2021/12/12 01:58:41;;;;;;;39.90;35.60;;;;;;;11.65;100.00;101895.34;1906359;74;86476;-78
2021/12/12 02:04:30;;;;;;;39.10;35.03;;;;;;;11.68;100.00;101893.44;1983218;71;40329;-75
2021/12/12 02:10:16;;;;;;;40.90;36.97;;;;;;;11.80;100.00;101889.94;1843365;76;86668;-76
2021/12/12 02:16:02;;;;;;;40.63;36.40;;;;;;;11.72;100.00;101899.60;1839582;76;86466;-72
2021/12/12 02:22:01;;;;;;;38.57;35.07;;;;;;;11.76;100.00;101909.13;1895333;73;86239;-76
2021/12/12 02:39:44;;;;;;;39.37;35.70;;;;;;;11.64;100.00;101923.73;1856130;75;86321;-72
2021/12/12 02:45:32;;;;;;;39.73;35.60;;;;;;;11.73;100.00;101927.73;1921792;72;86598;-76
2021/12/12 02:51:21;;;;;;;38.83;34.97;;;;;;;11.76;100.00;101924.44;1985479;71;39889;-75
2021/12/12 02:57:07;;;;;;;40.73;36.67;;;;;;;11.80;100.00;101920.55;1833839;76;85735;-76
2021/12/12 03:02:58;;;;;;;38.93;35.20;;;;;;;11.83;100.00;101918.08;1878373;74;86712;-72
2021/12/12 03:08:45;;;;;;;38.30;34.90;;;;;;;11.73;100.00;101922.16;1925998;73;86079;-72
2021/12/12 03:14:32;;;;;;;41.20;37.00;;;;;;;11.76;100.00;101919.41;1924919;73;86259;-72
2021/12/12 03:20:24;;;;;;;38.37;34.77;;;;;;;11.80;100.00;101917.77;1975058;71;39490;-76
2021/12/12 03:26:13;;;;;;;37.77;34.40;;;;;;;11.84;100.00;101923.09;1843871;76;86897;-76
2021/12/12 03:32:01;;;;;;;39.57;35.93;;;;;;;11.88;100.00;101921.45;1794410;78;85617;-76
2021/12/12 03:37:47;;;;;;;38.43;34.83;;;;;;;11.88;100.00;101923.39;1874507;75;85849;-76
2021/12/12 03:43:34;;;;;;;40.40;35.03;;;;;;;11.91;100.00;101928.41;1912347;72;86219;-73
2021/12/12 03:49:19;;;;;;;38.33;34.67;;;;;;;11.94;100.00;101930.10;1981937;71;40186;-76
2021/12/12 03:55:06;;;;;;;36.53;33.73;;;;;;;11.98;100.00;101931.23;1855376;75;86993;-76
2021/12/12 04:00:53;;;;;;;38.20;34.90;;;;;;;11.88;100.00;101935.37;1881638;74;86657;-76
2021/12/12 04:06:38;;;;;;;38.07;34.77;;;;;;;12.00;100.00;101930.98;1931556;72;86033;-76
2021/12/12 04:12:22;;;;;;;37.03;33.53;;;;;;;11.97;100.00;101930.14;1972851;71;39602;-76
2021/12/12 04:18:08;;;;;;;37.70;34.13;;;;;;;12.14;100.00;101942.79;1845554;76;85977;-76
2021/12/12 04:23:55;;;;;;;35.63;32.77;;;;;;;12.19;100.00;101933.62;1875174;75;86204;-72
2021/12/12 04:29:43;;;;;;;37.30;34.20;;;;;;;12.18;100.00;101939.75;1910388;73;86493;-79
2021/12/12 04:35:29;;;;;;;35.63;32.57;;;;;;;12.19;100.00;101945.58;1917019;74;86541;-72
2021/12/12 04:41:15;;;;;;;36.20;33.23;;;;;;;12.25;100.00;101953.42;1980325;71;39859;-72
2021/12/12 04:53:09;;;;;;;36.30;33.20;;;;;;;12.26;100.00;101955.11;1828406;75;86368;-76
2021/12/12 04:59:01;;;;;;;35.23;32.33;;;;;;;12.32;100.00;101966.00;1799738;78;86348;-72
2021/12/12 05:04:49;;;;;;;36.80;34.17;;;;;;;12.27;100.00;101972.11;1876610;75;86471;-73
2021/12/12 05:10:35;;;;;;;35.30;32.70;;;;;;;12.19;100.00;101975.41;1911863;74;86466;-76
2021/12/12 05:16:25;;;;;;;36.87;33.73;;;;;;;12.19;100.00;101978.20;1980107;71;39515;-76
2021/12/12 05:19:04;;;;;;;34.50;31.93;;;;;;;12.30;100.00;101991.91;1911501;73;936849;-76
2021/12/12 05:24:49;;;;;;;35.87;33.17;;;;;;;12.31;100.00;101988.58;1895665;75;86449;-71
2021/12/12 05:30:36;;;;;;;36.13;33.43;;;;;;;12.42;100.00;101996.42;1914582;74;86574;-72
2021/12/12 05:36:22;;;;;;;34.77;32.20;;;;;;;12.40;100.00;102001.45;1979798;71;39601;-76
2021/12/12 05:42:08;;;;;;;34.17;31.67;;;;;;;12.41;100.00;102000.34;1840897;76;86773;-78
2021/12/12 05:47:51;;;;;;;34.67;31.80;;;;;;;12.43;100.00;102000.34;1885671;73;85950;-72
2021/12/12 05:53:36;;;;;;;36.57;34.17;;;;;;;12.47;100.00;101997.30;1905388;72;86100;-77
2021/12/12 05:59:23;;;;;;;35.70;33.30;;;;;;;12.59;100.00;102020.22;1978968;71;39736;-76
2021/12/12 06:05:09;;;;;;;37.30;34.63;;;;;;;12.56;100.00;102023.56;1825598;76;86352;-77
2021/12/12 06:10:53;;;;;;;39.43;37.03;;;;;;;12.57;100.00;102036.39;1869448;75;86353;-76
2021/12/12 06:16:41;;;;;;;36.27;33.93;;;;;;;12.65;100.00;102042.00;1904800;72;86288;-76
2021/12/12 06:22:29;;;;;;;35.10;32.70;;;;;;;12.61;100.00;102047.29;1915339;72;86226;-72
2021/12/12 06:28:17;;;;;;;35.27;32.70;;;;;;;12.70;100.00;102049.02;1891251;74;86463;-72
2021/12/12 06:34:01;;;;;;;35.47;32.93;;;;;;;12.68;100.00;102052.06;1909199;74;85636;-75
2021/12/12 06:39:46;;;;;;;37.80;34.60;;;;;;;12.68;100.00;102049.83;1887064;75;86474;-76
2021/12/12 06:45:31;;;;;;;37.43;34.70;;;;;;;12.73;100.00;102054.88;1917723;72;86718;-72
2021/12/12 06:51:16;;;;;;;36.23;33.57;;;;;;;12.58;100.00;102059.54;1982842;71;39617;-76
2021/12/12 06:57:04;;;;;;;36.33;33.73;;;;;;;12.70;100.00;102065.19;1848875;76;86154;-71
2021/12/12 07:02:52;;;;;;;37.17;34.57;;;;;;;12.71;100.00;102070.18;1870326;75;86096;-76
2021/12/12 07:08:38;;;;;;;37.20;34.30;;;;;;;12.77;100.00;102078.88;1833479;76;86585;-79
2021/12/12 07:14:21;;;;;;;37.17;34.53;;;;;;;12.74;100.00;102081.66;1984602;70;46718;-76
2021/12/12 07:20:11;;;;;;;38.27;35.73;;;;;;;12.71;100.00;102078.55;1847075;76;86409;-69
2021/12/12 07:26:00;;;;;;;39.47;36.77;;;;;;;12.58;100.00;102084.04;1803137;78;86753;-74
2021/12/12 07:31:45;;;;;;;38.10;35.17;;;;;;;12.64;100.00;102098.31;1881210;75;86473;-74
2021/12/12 07:37:32;;;;;;;38.77;35.97;;;;;;;12.69;100.00;102110.90;1941314;73;86579;-75
2021/12/12 07:43:17;;;;;;;41.53;38.53;;;;;;;12.68;100.00;102119.52;1979663;71;39554;-71
2021/12/12 07:49:01;;;;;;;42.23;39.27;;;;;;;12.57;100.00;102122.80;1842169;76;86280;-70
2021/12/12 07:54:50;;;;;;;45.13;41.93;;;;;;;12.46;100.00;102125.21;1884420;75;86528;-72
2021/12/12 08:00:36;;;;;;;43.17;40.03;;;;;;;12.30;100.00;102127.59;1911500;74;86084;-72
2021/12/12 08:06:21;;;;;;;43.30;40.40;;;;;;;12.22;100.00;102135.89;1973298;71;39730;-75
2021/12/12 08:12:05;;;;;;;44.20;40.90;;;;;;;12.26;100.00;102151.52;1847171;76;86991;-71
2021/12/12 08:17:49;;;;;;;45.27;42.10;;;;;;;11.99;100.00;102155.70;1883036;73;86486;-71
2021/12/12 08:23:37;;;;;;;41.33;38.30;;;;;;;12.06;100.00;102158.30;1915861;74;86649;-75
2021/12/12 08:29:23;;;;;;;42.43;39.00;;;;;;;12.04;100.00;102160.49;1978091;71;39557;-74
2021/12/12 08:35:11;;;;;;;43.13;40.13;;;;;;;12.02;100.00;102162.72;1950169;71;86235;-71
2021/12/12 08:40:59;;;;;;;46.40;43.10;;;;;;;11.96;100.00;102166.54;1807683;77;85466;-72
2021/12/12 08:46:47;;;;;;;45.43;41.83;;;;;;;11.94;100.00;102172.36;1800315;78;85937;-72
2021/12/12 08:52:38;;;;;;;42.93;39.53;;;;;;;11.73;100.00;102171.30;1909674;72;86213;-76
2021/12/12 08:58:25;;;;;;;46.23;43.03;;;;;;;11.61;100.00;102174.74;1985613;71;39583;-75
2021/12/12 09:04:12;;;;;;;43.80;40.40;;;;;;;11.65;100.00;102191.21;1834359;76;86686;-75
2021/12/12 09:09:59;;;;;;;44.43;41.23;;;;;;;11.57;100.00;102198.63;1807170;78;87111;-75
2021/12/12 09:15:48;;;;;;;45.90;42.20;;;;;;;11.43;100.00;102202.89;1880461;74;86444;-74
2021/12/12 09:21:43;;;;;;;48.20;44.53;;;;;;;11.60;100.00;102207.00;1908627;74;86409;-72
2021/12/12 09:27:30;;;;;;;46.07;42.50;;;;;;;11.32;100.00;102210.27;1948457;73;86458;-75
2021/12/12 09:33:20;;;;;;;43.23;39.47;;;;;;;11.61;100.00;102214.25;1982430;71;39608;-72
2021/12/12 09:39:10;;;;;;;47.83;43.93;;;;;;;11.94;100.00;102217.49;1824924;76;86878;-71
2021/12/12 09:45:35;;;;;;;48.23;44.77;;;;;;;12.01;100.00;102227.86;1837465;76;86307;-71
2021/12/12 09:55:02;;;;;;;45.40;41.73;;;;;;;12.23;100.00;102239.81;1883462;74;85751;-71
2021/12/12 10:00:57;;;;;;;43.67;40.27;;;;;;;12.41;100.00;102251.96;1880955;73;87160;-71
2021/12/12 10:03:32;;;;;;;44.60;40.60;;;;;;;12.42;100.00;102269.53;1853151;75;938856;-79
2021/12/12 10:09:19;;;;;;;43.63;39.87;;;;;;;12.56;100.00;102257.70;1982282;71;39543;-81
2021/12/12 10:15:12;;;;;;;45.33;41.03;;;;;;;12.64;100.00;102250.80;1880021;75;86846;-71
2021/12/12 10:21:01;;;;;;;48.43;44.23;;;;;;;12.71;100.00;102257.83;1891999;74;86528;-71
2021/12/12 10:26:56;;;;;;;47.50;43.13;;;;;;;12.78;100.00;102262.66;1882659;73;86160;-77
2021/12/12 10:32:50;;;;;;;46.80;42.60;;;;;;;12.92;100.00;102265.00;1906361;74;86283;-76
2021/12/12 10:38:39;;;;;;;46.57;42.47;;;;;;;13.02;100.00;102262.27;1915411;73;86103;-74
2021/12/12 10:44:28;;;;;;;45.50;41.37;;;;;;;13.07;100.00;102258.97;1974384;71;39685;-76
2021/12/12 10:50:17;;;;;;;47.83;43.43;;;;;;;13.02;100.00;102256.69;1943464;71;40179;-71
2021/12/12 10:52:50;;;;;;;47.17;42.90;;;;;;;12.95;100.00;102267.24;1913833;73;936854;-76
2021/12/12 10:58:39;;;;;;;49.97;45.70;;;;;;;13.18;100.00;102260.74;1913327;72;86150;-72
2021/12/12 11:04:27;;;;;;;49.30;45.13;;;;;;;13.31;100.00;102261.38;1982663;71;39499;-71
2021/12/12 11:10:13;;;;;;;47.00;42.97;;;;;;;13.36;100.00;102261.42;1825472;76;86926;-76
2021/12/12 11:16:04;;;;;;;52.27;48.10;;;;;;;13.28;100.00;102257.19;1879642;75;86331;-72
2021/12/12 11:21:50;;;;;;;48.07;43.90;;;;;;;13.40;100.00;102252.23;1898149;73;86772;-77
2021/12/12 11:27:42;;;;;;;45.90;41.73;;;;;;;13.48;100.00;102250.87;1908273;74;86364;-72
2021/12/12 11:33:31;;;;;;;51.60;47.27;;;;;;;13.58;100.00;102253.73;1925721;73;86443;-71
2021/12/12 11:39:21;;;;;;;50.97;47.17;;;;;;;13.57;100.00;102255.69;1974455;71;39496;-76
2021/12/12 11:42:03;;;;;;;51.27;47.27;;;;;;;13.55;100.00;102268.25;1901830;73;937220;-76
2021/12/12 11:47:57;;;;;;;53.43;49.33;;;;;;;13.62;100.00;102252.08;1882897;74;86389;-71
2021/12/12 11:53:50;;;;;;;52.43;48.50;;;;;;;13.72;100.00;102250.75;1865399;76;86419;-76
2021/12/12 11:59:41;;;;;;;50.57;46.47;;;;;;;13.75;100.00;102249.34;1942337;72;86481;-72
2021/12/12 12:08:48;;;;;;;48.03;44.53;;;;;;;13.86;100.00;102242.71;1964111;70;86676;-76
2021/12/12 12:14:48;;;;;;;49.40;45.83;;;;;;;13.81;100.00;102250.52;1897121;72;86830;-76
2021/12/12 12:17:23;;;;;;;50.35;46.23;;;;;;;13.77;100.00;102256.36;1852797;75;937901;-72
2021/12/12 12:23:41;;;;;;;53.20;48.87;;;;;;;13.83;100.00;102245.48;1984715;71;39566;-72
2021/12/12 12:29:57;;;;;;;50.50;46.40;;;;;;;13.86;100.00;102251.91;1976430;71;39497;-72
2021/12/12 12:33:15;;;;;;;52.87;48.70;;;;;;;13.88;100.00;102257.23;1905342;73;939038;-72
2021/12/12 12:36:22;;;;;;;50.40;46.50;;;;;;;13.91;100.00;102260.86;1855373;74;941035;-76
2021/12/12 12:39:44;;;;;;;48.67;44.73;;;;;;;13.88;100.00;102254.44;1903295;73;938281;-72
2021/12/12 12:43:06;;;;;;;47.20;43.20;;;;;;;13.91;100.00;102253.33;1829641;73;940888;-77
2021/12/12 12:46:16;;;;;;;46.87;42.93;;;;;;;13.93;100.00;102244.69;1815502;73;940905;-76
2021/12/12 12:49:20;;;;;;;47.10;43.07;;;;;;;13.95;100.00;102249.42;1920905;73;941318;-75
2021/12/12 12:52:29;;;;;;;48.33;44.43;;;;;;;13.92;100.00;102242.44;1890379;73;938952;-72
2021/12/12 12:55:45;;;;;;;51.83;47.97;;;;;;;13.90;100.00;102236.86;1889687;73;939376;-71
2021/12/12 13:01:46;;;;;;;49.17;44.93;;;;;;;13.93;100.00;102227.92;1909202;72;86068;-76
2021/12/12 13:10:44;;;;;;;50.37;46.60;;;;;;;13.96;100.00;102224.02;1943951;72;86647;-71
2021/12/12 13:16:33;;;;;;;47.30;43.87;;;;;;;14.06;100.00;102216.23;1912269;74;86809;-72
2021/12/12 13:22:23;;;;;;;49.67;45.97;;;;;;;14.09;100.00;102217.91;1977854;71;39454;-72
2021/12/12 13:28:19;;;;;;;46.10;42.57;;;;;;;14.14;100.00;102222.12;1808593;78;86211;-72
2021/12/12 13:30:59;;;;;;;45.47;41.97;;;;;;;14.21;100.00;102227.98;1766860;79;937250;-77
2021/12/12 13:33:33;;;;;;;46.73;43.43;;;;;;;14.19;100.00;102225.48;1766365;79;941038;-72
2021/12/12 13:36:16;;;;;;;45.17;41.97;;;;;;;14.22;100.00;102226.87;1758404;79;941046;-76
2021/12/12 13:45:36;;;;;;;43.70;40.80;;;;;;;14.19;100.00;102216.26;1983440;71;40364;-71
2021/12/12 13:48:30;;;;;;;46.07;42.97;;;;;;;14.11;100.00;102212.06;1898288;73;938909;-75
2021/12/12 13:54:26;;;;;;;45.70;42.70;;;;;;;14.34;100.00;102209.28;1976507;71;39641;-72
2021/12/12 14:00:22;;;;;;;48.07;44.87;;;;;;;14.25;100.00;102206.78;1977384;71;39729;-77
2021/12/12 14:02:58;;;;;;;44.50;41.50;;;;;;;14.13;100.00;102212.05;1910881;73;935875;-76
2021/12/12 14:08:47;;;;;;;45.60;42.70;;;;;;;14.01;100.00;102208.67;1891321;73;86481;-72
2021/12/12 14:14:39;;;;;;;47.97;44.77;;;;;;;13.82;100.00;102198.28;1926448;73;85771;-76
2021/12/12 14:20:28;;;;;;;46.87;43.87;;;;;;;13.76;100.00;102200.21;1978736;71;39464;-72
2021/12/12 14:26:15;;;;;;;48.80;45.60;;;;;;;13.73;100.00;102211.09;1933933;72;85670;-77
2021/12/12 14:32:06;;;;;;;53.80;50.60;;;;;;;13.88;100.00;102209.19;1841050;76;86383;-72
2021/12/12 14:37:55;;;;;;;54.30;51.00;;;;;;;13.98;100.00;102205.04;1875824;74;86696;-76
2021/12/12 14:43:45;;;;;;;56.50;53.17;;;;;;;13.89;100.00;102208.63;1904807;72;86156;-71
2021/12/12 14:49:34;;;;;;;54.97;51.77;;;;;;;13.84;100.00;102208.06;1913703;73;86513;-72
2021/12/12 14:55:23;;;;;;;55.93;52.77;;;;;;;13.84;100.00;102209.45;1978835;70;39590;-73
2021/12/12 15:01:13;;;;;;;58.13;54.63;;;;;;;13.80;100.00;102203.30;1826950;76;86385;-72
2021/12/12 15:07:01;;;;;;;56.80;53.40;;;;;;;13.78;100.00;102212.52;1893912;74;86459;-72
2021/12/12 15:12:47;;;;;;;58.57;55.03;;;;;;;13.61;100.00;102193.16;1890365;73;85808;-77
2021/12/12 15:21:44;;;;;;;60.23;56.73;;;;;;;13.56;100.00;102216.30;1952251;70;86343;-70
2021/12/12 15:27:35;;;;;;;59.73;56.03;;;;;;;13.58;100.00;102222.47;1929211;71;86764;-76
2021/12/12 15:33:26;;;;;;;57.10;53.60;;;;;;;13.56;100.00;102228.87;1945741;71;40172;-72
2021/12/12 15:39:18;;;;;;;60.67;56.97;;;;;;;13.51;100.00;102232.22;1875083;74;86652;-76
2021/12/12 15:45:06;;;;;;;64.93;61.13;;;;;;;13.39;100.00;102237.98;1857019;76;85491;-71
2021/12/12 15:50:52;;;;;;;60.33;56.53;;;;;;;13.29;100.00;102241.30;1887817;74;86771;-72
2021/12/12 15:56:41;;;;;;;58.30;54.83;;;;;;;13.17;100.00;102243.74;1918588;72;86196;-77
2021/12/12 16:02:29;;;;;;;53.97;50.33;;;;;;;13.11;100.00;102243.41;1972467;72;86264;-76
2021/12/12 16:08:18;;;;;;;58.87;54.90;;;;;;;13.01;100.00;102250.27;1934706;72;39728;-77
2021/12/12 16:14:05;;;;;;;52.97;49.37;;;;;;;13.05;100.00;102254.78;1836964;76;86285;-76
2021/12/12 16:19:56;;;;;;;55.90;52.10;;;;;;;13.02;100.00;102256.69;1884789;73;86701;-76
2021/12/12 16:25:43;;;;;;;51.97;48.07;;;;;;;13.02;100.00;102254.74;1916169;74;86542;-76
2021/12/12 16:31:32;;;;;;;50.93;47.27;;;;;;;12.96;100.00;102253.59;1931973;72;86210;-76
2021/12/12 16:37:23;;;;;;;50.47;46.83;;;;;;;12.92;100.00;102260.23;1931884;72;39487;-76
2021/12/12 16:43:14;;;;;;;48.70;45.07;;;;;;;12.85;100.00;102265.20;1838905;76;86400;-72
2021/12/12 16:52:13;;;;;;;48.87;45.23;;;;;;;12.82;100.00;102271.88;1987139;69;39496;-72
2021/12/12 16:54:46;;;;;;;49.43;45.80;;;;;;;12.82;100.00;102276.05;1924143;72;937374;-75
2021/12/12 17:00:38;;;;;;;48.73;44.80;;;;;;;12.81;100.00;102274.36;1907538;73;85759;-71
2021/12/12 17:09:35;;;;;;;55.80;51.17;;;;;;;12.79;100.00;102270.47;1906882;74;86160;-76
2021/12/12 17:12:09;;;;;;;53.70;49.47;;;;;;;12.76;100.00;102282.13;1799397;76;938998;-76
2021/12/12 17:18:02;;;;;;;48.47;44.47;;;;;;;12.79;100.00;102271.86;1809373;78;86420;-76
2021/12/12 17:27:10;;;;;;;50.43;46.70;;;;;;;12.82;100.00;102272.72;1812480;76;86438;-72
2021/12/12 17:33:04;;;;;;;50.03;46.03;;;;;;;12.77;100.00;102267.94;1797586;78;86648;-71
2021/12/12 17:38:54;;;;;;;51.17;47.07;;;;;;;12.88;100.00;102272.22;1893326;74;86631;-68
2021/12/12 17:45:20;;;;;;;48.73;44.93;;;;;;;12.77;100.00;102272.66;1904944;74;86541;-76
2021/12/12 17:48:26;;;;;;;47.60;43.93;;;;;;;12.77;100.00;102277.69;1852364;75;936888;-71
2021/12/12 17:51:30;;;;;;;47.83;43.83;;;;;;;12.75;100.00;102279.89;1850636;75;938979;-76
2021/12/12 17:54:05;;;;;;;45.63;42.20;;;;;;;12.74;100.00;102281.02;1887731;73;938912;-75
2021/12/12 17:59:56;;;;;;;45.80;42.40;;;;;;;12.74;100.00;102273.20;1881179;73;86375;-76
2021/12/12 18:05:45;;;;;;;45.90;42.50;;;;;;;12.78;100.00;102283.56;1907212;73;85834;-69
2021/12/12 18:11:51;;;;;;;45.37;41.87;;;;;;;12.76;100.00;102271.82;1868290;75;86526;-69
2021/12/12 18:18:07;;;;;;;46.10;42.57;;;;;;;12.70;100.00;102268.72;1937612;72;86726;-68
2021/12/12 18:23:56;;;;;;;47.83;44.00;;;;;;;12.70;100.00;102270.66;1907120;74;86065;-68
2021/12/12 18:30:05;;;;;;;46.13;42.70;;;;;;;12.71;100.00;102282.08;1845420;76;85441;-70
2021/12/12 18:35:53;;;;;;;48.23;44.73;;;;;;;12.72;100.00;102270.67;1882193;74;86808;-71
2021/12/12 18:41:43;;;;;;;53.13;49.33;;;;;;;12.78;100.00;102283.56;1911531;74;86265;-73
2021/12/12 18:47:32;;;;;;;56.17;52.27;;;;;;;12.66;100.00;102290.42;1933136;72;86630;-72
2021/12/12 18:50:05;;;;;;;52.13;48.47;;;;;;;12.65;100.00;102304.06;1863933;74;938919;-72
2021/12/12 18:55:53;;;;;;;51.37;47.70;;;;;;;12.71;100.00;102290.44;1912886;74;86509;-70
2021/12/12 19:01:42;;;;;;;48.73;45.17;;;;;;;12.74;100.00;102298.30;1913616;74;86372;-71
2021/12/12 19:07:28;;;;;;;46.83;43.67;;;;;;;12.68;100.00;102302.98;1922728;73;86278;-72
2021/12/12 19:13:12;;;;;;;47.10;43.53;;;;;;;12.72;100.00;102325.04;1797355;78;86315;-68
2021/12/12 19:19:01;;;;;;;50.70;46.97;;;;;;;12.64;100.00;102307.40;1799344;78;86304;-71
2021/12/12 19:24:46;;;;;;;49.83;46.20;;;;;;;12.62;100.00;102304.02;1881209;75;86156;-69
2021/12/12 19:30:35;;;;;;;48.93;45.60;;;;;;;12.70;100.00;102323.63;1902702;72;86402;-71
2021/12/12 19:36:36;;;;;;;46.63;43.10;;;;;;;12.58;100.00;102330.74;1923086;73;86155;-72
2021/12/12 19:42:30;;;;;;;47.07;43.67;;;;;;;12.56;100.00;102309.81;1971810;71;39819;-69
2021/12/12 19:48:23;;;;;;;47.60;43.80;;;;;;;12.64;100.00;102296.25;1972169;71;39634;-69
2021/12/12 19:54:11;;;;;;;45.73;42.40;;;;;;;12.57;100.00;102290.05;1844073;76;85764;-72
2021/12/12 20:00:05;;;;;;;47.20;43.77;;;;;;;12.58;100.00;102295.89;1808071;78;86590;-70
2021/12/12 20:12:24;;;;;;;49.07;45.50;;;;;;;12.63;100.00;102295.11;1920120;71;39529;-73
2021/12/12 20:18:13;;;;;;;50.43;46.70;;;;;;;12.62;100.00;102297.05;1838655;76;86834;-72
2021/12/12 20:24:16;;;;;;;51.33;47.83;;;;;;;12.60;100.00;102292.30;1884557;74;86257;-71
2021/12/12 20:26:50;;;;;;;51.60;47.73;;;;;;;12.54;100.00;102303.10;1863024;75;937119;-71
2021/12/12 20:32:40;;;;;;;50.73;47.13;;;;;;;12.57;100.00;102288.66;1908195;73;85524;-72
2021/12/12 20:38:33;;;;;;;49.90;46.40;;;;;;;12.57;100.00;102295.63;1912627;72;86264;-73
2021/12/12 20:44:29;;;;;;;52.07;48.50;;;;;;;12.61;100.00;102277.82;1847896;76;86314;-74
2021/12/12 20:50:18;;;;;;;52.30;48.93;;;;;;;12.60;100.00;102267.22;1978010;71;39569;-73
2021/12/12 20:56:07;;;;;;;52.73;49.00;;;;;;;12.60;100.00;102262.19;1971738;71;86510;-70
2021/12/12 21:01:55;;;;;;;52.10;48.60;;;;;;;12.64;100.00;102255.82;1882471;74;86700;-72
2021/12/12 21:10:51;;;;;;;52.93;49.17;;;;;;;12.53;100.00;102242.91;1869314;75;86474;-72
2021/12/12 21:16:38;;;;;;;52.70;49.13;;;;;;;12.63;100.00;102249.95;1913723;74;86772;-73
2021/12/12 21:25:47;;;;;;;49.93;46.53;;;;;;;12.57;100.00;102261.34;1888368;75;86618;-74
2021/12/12 21:31:35;;;;;;;50.10;46.70;;;;;;;12.56;100.00;102263.83;1909547;74;85910;-73
2021/12/12 21:37:24;;;;;;;48.83;45.30;;;;;;;12.48;100.00;102269.34;1978693;71;39718;-73
2021/12/12 21:43:12;;;;;;;50.50;47.17;;;;;;;12.48;100.00;102268.48;1950483;72;86274;-71
2021/12/12 21:48:59;;;;;;;46.17;42.73;;;;;;;12.45;100.00;102266.23;1807924;78;85555;-73
2021/12/12 21:54:48;;;;;;;47.40;43.90;;;;;;;12.47;100.00;102266.25;1876909;75;86217;-71
2021/12/12 22:00:35;;;;;;;47.47;44.07;;;;;;;12.42;100.00;102270.37;1914695;74;86498;-72
2021/12/12 22:06:24;;;;;;;51.53;47.73;;;;;;;12.48;100.00;102272.67;1943277;71;39661;-70
2021/12/12 22:12:10;;;;;;;51.43;47.93;;;;;;;12.44;100.00;102269.58;1890597;74;86490;-73
2021/12/12 22:18:00;;;;;;;47.67;44.33;;;;;;;12.42;100.00;102274.55;1806049;78;86549;-72
2021/12/12 22:23:48;;;;;;;44.40;41.30;;;;;;;12.35;100.00;102268.91;1879910;74;86324;-72
2021/12/12 22:29:35;;;;;;;45.90;42.40;;;;;;;12.51;100.00;102267.41;1921800;72;85683;-72
2021/12/12 22:35:24;;;;;;;48.63;45.30;;;;;;;12.43;100.00;102271.22;1979380;71;39637;-73
2021/12/12 22:41:13;;;;;;;47.70;44.30;;;;;;;12.48;100.00;102281.03;1836141;76;86235;-72
2021/12/12 22:47:02;;;;;;;47.57;44.00;;;;;;;12.43;100.00;102273.45;1901205;74;85670;-72
2021/12/12 22:52:52;;;;;;;46.57;43.30;;;;;;;12.48;100.00;102274.91;1881743;74;86279;-69
2021/12/12 22:58:40;;;;;;;47.07;43.63;;;;;;;12.42;100.00;102280.13;1924051;73;86473;-72
2021/12/12 23:04:47;;;;;;;48.80;45.50;;;;;;;12.44;100.00;102272.36;1881355;74;86761;-71
2021/12/12 23:10:33;;;;;;;46.77;43.57;;;;;;;12.44;100.00;102271.52;1908405;74;86657;-73
2021/12/12 23:16:22;;;;;;;46.80;43.60;;;;;;;12.45;100.00;102268.45;1947859;71;39560;-73
2021/12/12 23:18:55;;;;;;;47.40;44.33;;;;;;;12.38;100.00;102278.13;1895601;74;935857;-71
2021/12/12 23:24:45;;;;;;;47.27;43.87;;;;;;;12.47;100.00;102275.16;1941311;72;86268;-69
2021/12/12 23:30:33;;;;;;;47.83;44.63;;;;;;;12.49;100.00;102276.59;1913165;73;86843;-69
2021/12/12 23:36:21;;;;;;;47.50;44.23;;;;;;;12.47;100.00;102279.34;1942243;71;39634;-71
2021/12/12 23:42:22;;;;;;;47.00;43.50;;;;;;;12.48;100.00;102276.84;1925936;70;39653;-73
2021/12/12 23:45:09;;;;;;;46.43;43.40;;;;;;;12.40;100.00;102282.90;1914094;73;936383;-72
2021/12/12 23:50:52;;;;;;;45.63;42.60;;;;;;;12.37;100.00;102271.70;1879229;74;86373;-69
2021/12/12 23:56:41;;;;;;;46.43;43.20;;;;;;;12.48;100.00;102280.48;1917978;72;86762;-69
